KFUL

Fullerton Municipal Airport

Fullerton, California, USA
METAR KFUL 230153Z VRB04KT 10SM OVC029 19/12 A2988 RMK AO2 SLP117 T01940122
Observed Flight Rules
May-23 @ 01:53 UTC (60 minutes ago) Marginal Visual Flight Rules
Wind Visibility Clouds
Variable at 4 knots 10 miles
  • Overcast at 2,900' AGL
Temperatures Readings
Current 19°C / 66°F
Dewpoint 12°C / 54°F
Humidity 64%
Altimeter 29.88" Hg
Pressure 1011.7 hPa
Elevation 35
METAR KFUL 230153Z VRB04KT 10SM OVC029 19/12 A2988 RMK AO2 SLP117 T01940122
Observed Flight Rules
May-23 @ 01:53 UTC
(60 minutes ago)
MVFR
Wind Visibility
Variable at 4 knots 10 miles
Clouds
  • Overcast at 2,900' AGL
Temperature Dewpoint
19°C / 66°F 12°C / 54°F
Humidity Altimeter Pressure
64% 29.88" Hg 1011.7 hPa